Time;durP1;ratioP1;P1;durP2;ratioP2;P2;SDS_P1;SDS_P2;PMS_P1;PMS_P2;Temp;Humidity;BMP_temperature;BMP_pressure;BME280_temperature;BME280_humidity;BME280_pressure;Samples;Min_cycle;Max_cycle;Signal;HPM_P1;HPM_P2
2022/10/28 00:01:58;;;;;;;;;;;;;;;;;;5073489;28;20007;-87
2022/10/28 00:04:23;;;;;;;;;;;;;;;;;;5073614;28;19916;-87
2022/10/28 00:06:49;;;;;;;;;;;;;;;;;;5073515;28;19962;-85
2022/10/28 00:09:14;;;;;;;;;;;;;;;;;;5072307;28;19970;-87
2022/10/28 00:11:40;;;;;;;;;;;;;;;;;;5074099;28;20375;-86
2022/10/28 00:14:06;;;;;;;;;;;;;;;;;;5073612;28;19923;-85
2022/10/28 00:16:33;;;;;;;;;;;;;;;;;;5075096;28;19923;-82
2022/10/28 00:18:59;;;;;;;;;;;;;;;;;;5080176;28;19928;-82
2022/10/28 00:21:26;;;;;;;;;;;;;;;;;;5105941;28;19916;-82
2022/10/28 00:23:52;;;;;;;;;;;;;;;;;;5107205;28;19900;-84
2022/10/28 00:26:18;;;;;;;;;;;;;;;;;;5109053;28;19965;-86
2022/10/28 00:28:46;;;;;;;;;;;;;;;;;;5097912;28;20007;-86
2022/10/28 00:31:12;;;;;;;;;;;;;;;;;;5097805;28;20029;-84
2022/10/28 00:33:37;;;;;;;;;;;;;;;;;;5097502;28;19924;-83
2022/10/28 00:36:10;;;;;;;;;;;;;;;;;;5097222;28;19994;-87
2022/10/28 00:38:36;;;;;;;;;;;;;;;;;;5097081;28;19939;-85
2022/10/28 00:41:01;;;;;;;;;;;;;;;;;;5097150;28;19912;-85
2022/10/28 00:43:40;;;;;;;;;;;;;;;;;;5095828;28;19922;-86
2022/10/28 00:46:23;;;;;;;;;;;;;;;;;;5097006;28;19923;-86
2022/10/28 00:48:51;;;;;;;;;;;;;;;;;;5096832;28;19953;-86
2022/10/28 00:51:18;;;;;;;;;;;;;;;;;;5095605;28;19976;-86
2022/10/28 00:53:47;;;;;;;;;;;;;;;;;;5096887;28;20004;-85
2022/10/28 00:56:14;;;;;;;;;;;;;;;;;;5096820;28;19916;-86
2022/10/28 00:58:40;;;;;;;;;;;;;;;;;;5095463;28;19978;-87
2022/10/28 01:01:06;;;;;;;;;;;;;;;;;;5096662;28;20368;-87
2022/10/28 01:03:31;;;;;;;;;;;;;;;;;;5096710;28;19920;-86
2022/10/28 01:05:56;;;;;;;;;;;;;;;;;;5096476;28;20286;-85
2022/10/28 01:08:22;;;;;;;;;;;;;;;;;;5096322;28;19920;-84
2022/10/28 01:10:47;;;;;;;;;;;;;;;;;;5096451;28;19915;-86
2022/10/28 01:13:13;;;;;;;;;;;;;;;;;;5096383;28;19916;-86
2022/10/28 01:15:38;;;;;;;;;;;;;;;;;;5095694;28;19912;-85
2022/10/28 01:18:33;;;;;;;;;;;;;;;;;;5096440;28;19920;-85
2022/10/28 01:21:07;;;;;;;;;;;;;;;;;;5053888;28;19916;-86
2022/10/28 01:23:47;;;;;;;;;;;;;;;;;;5049110;28;20342;-88
2022/10/28 01:26:18;;;;;;;;;;;;;;;;;;5053848;28;19917;-88
2022/10/28 01:29:02;;;;;;;;;;;;;;;;;;5053784;28;20011;-86
2022/10/28 01:31:52;;;;;;;;;;;;;;;;;;5052900;28;19924;-87
2022/10/28 01:34:27;;;;;;;;;;;;;;;;;;5053897;28;19921;-87
2022/10/28 01:36:52;;;;;;;;;;;;;;;;;;5053641;28;20431;-86
2022/10/28 01:39:17;;;;;;;;;;;;;;;;;;5053757;28;19932;-87
2022/10/28 01:41:48;;;;;;;;;;;;;;;;;;5053657;28;19916;-86
2022/10/28 01:44:14;;;;;;;;;;;;;;;;;;5053517;28;19924;-86
2022/10/28 01:46:39;;;;;;;;;;;;;;;;;;5053497;28;19917;-84
2022/10/28 01:49:09;;;;;;;;;;;;;;;;;;5053517;28;19923;-84
2022/10/28 01:51:37;;;;;;;;;;;;;;;;;;5053399;28;19913;-85
2022/10/28 01:54:05;;;;;;;;;;;;;;;;;;5036813;28;19963;-86
2022/10/28 01:56:33;;;;;;;;;;;;;;;;;;5056703;28;19913;-85
2022/10/28 01:59:00;;;;;;;;;;;;;;;;;;5075319;28;19974;-86
2022/10/28 02:01:26;;;;;;;;;;;;;;;;;;5085267;28;19912;-87
2022/10/28 02:03:52;;;;;;;;;;;;;;;;;;5095375;28;19916;-85
2022/10/28 02:06:19;;;;;;;;;;;;;;;;;;5095593;28;19920;-87
2022/10/28 02:09:07;;;;;;;;;;;;;;;;;;5095436;28;19962;-86
2022/10/28 02:11:56;;;;;;;;;;;;;;;;;;5095312;28;20012;-86
2022/10/28 02:14:28;;;;;;;;;;;;;;;;;;5088959;28;20256;-85
2022/10/28 02:16:57;;;;;;;;;;;;;;;;;;5093944;28;19922;-86
2022/10/28 02:19:38;;;;;;;;;;;;;;;;;;5095115;28;19922;-85
2022/10/28 02:22:21;;;;;;;;;;;;;;;;;;5095021;28;19916;-86
2022/10/28 02:25:05;;;;;;;;;;;;;;;;;;5094939;28;19951;-87
2022/10/28 02:27:37;;;;;;;;;;;;;;;;;;5094963;28;19961;-85
2022/10/28 02:30:05;;;;;;;;;;;;;;;;;;5095115;28;19916;-85
2022/10/28 02:32:33;;;;;;;;;;;;;;;;;;5079878;28;20394;-85
2022/10/28 02:35:00;;;;;;;;;;;;;;;;;;5074620;28;20058;-87
2022/10/28 02:37:28;;;;;;;;;;;;;;;;;;5074571;28;19917;-87
2022/10/28 02:39:55;;;;;;;;;;;;;;;;;;5074612;28;19962;-87
2022/10/28 02:42:26;;;;;;;;;;;;;;;;;;5073835;28;20007;-87
2022/10/28 02:44:54;;;;;;;;;;;;;;;;;;5074400;28;20387;-84
2022/10/28 02:47:22;;;;;;;;;;;;;;;;;;5075959;28;19938;-87
2022/10/28 02:49:50;;;;;;;;;;;;;;;;;;5094608;28;19916;-86
2022/10/28 02:52:18;;;;;;;;;;;;;;;;;;5094588;28;19916;-87
2022/10/28 02:54:50;;;;;;;;;;;;;;;;;;5094811;28;19991;-87
2022/10/28 02:57:18;;;;;;;;;;;;;;;;;;5094612;28;19929;-86
2022/10/28 03:00:04;;;;;;;;;;;;;;;;;;5094104;28;19959;-87
2022/10/28 03:02:29;;;;;;;;;;;;;;;;;;5092714;28;19948;-87
2022/10/28 03:04:55;;;;;;;;;;;;;;;;;;5093074;28;19920;-87
2022/10/28 03:07:20;;;;;;;;;;;;;;;;;;5093980;28;19943;-88
2022/10/28 03:09:46;;;;;;;;;;;;;;;;;;5092938;28;19920;-87
2022/10/28 03:12:11;;;;;;;;;;;;;;;;;;5094171;28;19916;-87
2022/10/28 03:14:37;;;;;;;;;;;;;;;;;;5094254;28;19920;-88
2022/10/28 03:17:02;;;;;;;;;;;;;;;;;;5087690;28;19923;-88
2022/10/28 03:19:28;;;;;;;;;;;;;;;;;;5091979;28;19924;-88
2022/10/28 03:21:53;;;;;;;;;;;;;;;;;;5091381;28;19920;-87
2022/10/28 03:24:19;;;;;;;;;;;;;;;;;;5091399;28;20025;-87
2022/10/28 03:26:44;;;;;;;;;;;;;;;;;;5092590;28;19916;-86
2022/10/28 03:29:09;;;;;;;;;;;;;;;;;;5092700;28;19953;-86
2022/10/28 03:31:35;;;;;;;;;;;;;;;;;;5100802;28;19928;-87
2022/10/28 03:34:00;;;;;;;;;;;;;;;;;;5100225;28;19920;-85
2022/10/28 03:36:26;;;;;;;;;;;;;;;;;;5102063;28;19973;-86
2022/10/28 03:38:51;;;;;;;;;;;;;;;;;;5104160;28;19928;-88
2022/10/28 03:41:17;;;;;;;;;;;;;;;;;;5098396;28;20136;-85
2022/10/28 03:43:42;;;;;;;;;;;;;;;;;;5098532;28;20359;-86
2022/10/28 03:46:07;;;;;;;;;;;;;;;;;;5091733;28;19920;-87
2022/10/28 03:48:33;;;;;;;;;;;;;;;;;;5084839;28;19963;-87
2022/10/28 03:50:58;;;;;;;;;;;;;;;;;;5096727;28;19993;-84
2022/10/28 03:53:24;;;;;;;;;;;;;;;;;;5094670;28;19916;-86
2022/10/28 03:55:53;;;;;;;;;;;;;;;;;;5096939;28;20252;-83
2022/10/28 03:58:19;;;;;;;;;;;;;;;;;;5095756;28;19920;-84
2022/10/28 04:00:46;;;;;;;;;;;;;;;;;;5099418;28;20333;-87
2022/10/28 04:03:11;;;;;;;;;;;;;;;;;;5097800;28;19923;-87
2022/10/28 04:05:36;;;;;;;;;;;;;;;;;;5090106;28;20299;-88
2022/10/28 04:08:02;;;;;;;;;;;;;;;;;;5084031;28;20007;-88
2022/10/28 04:10:27;;;;;;;;;;;;;;;;;;5090856;28;19924;-86
2022/10/28 04:12:57;;;;;;;;;;;;;;;;;;5082271;28;19974;-88
2022/10/28 04:15:23;;;;;;;;;;;;;;;;;;5091941;28;20015;-87
2022/10/28 04:17:48;;;;;;;;;;;;;;;;;;5095356;28;20444;-85
2022/10/28 04:20:14;;;;;;;;;;;;;;;;;;5097669;28;20001;-87
2022/10/28 04:22:39;;;;;;;;;;;;;;;;;;5089935;28;19931;-87
2022/10/28 04:25:04;;;;;;;;;;;;;;;;;;5099027;28;19920;-86
2022/10/28 04:27:30;;;;;;;;;;;;;;;;;;5095321;28;19916;-86
2022/10/28 04:29:55;;;;;;;;;;;;;;;;;;5097412;28;19912;-87
2022/10/28 04:32:21;;;;;;;;;;;;;;;;;;5097270;28;19920;-87
2022/10/28 04:34:46;;;;;;;;;;;;;;;;;;5097348;28;20368;-87
2022/10/28 04:37:12;;;;;;;;;;;;;;;;;;5097156;28;20018;-86
2022/10/28 04:39:37;;;;;;;;;;;;;;;;;;5097184;28;19920;-87
2022/10/28 04:42:02;;;;;;;;;;;;;;;;;;5095877;28;20327;-87
2022/10/28 04:44:28;;;;;;;;;;;;;;;;;;5097125;28;19916;-87
2022/10/28 04:46:55;;;;;;;;;;;;;;;;;;5097076;28;20379;-88
2022/10/28 04:49:20;;;;;;;;;;;;;;;;;;5099493;28;19916;-83
2022/10/28 04:51:46;;;;;;;;;;;;;;;;;;5111903;28;19911;-84
2022/10/28 04:54:11;;;;;;;;;;;;;;;;;;5110485;28;19911;-84
2022/10/28 04:56:36;;;;;;;;;;;;;;;;;;5120533;28;19984;-84
2022/10/28 04:59:02;;;;;;;;;;;;;;;;;;5110321;28;20066;-86
2022/10/28 05:01:27;;;;;;;;;;;;;;;;;;5082083;28;19920;-86
2022/10/28 05:03:53;;;;;;;;;;;;;;;;;;5109388;28;19916;-87
2022/10/28 05:06:18;;;;;;;;;;;;;;;;;;5075540;28;19938;-88
2022/10/28 05:08:44;;;;;;;;;;;;;;;;;;5076286;28;19917;-87
2022/10/28 05:11:09;;;;;;;;;;;;;;;;;;5076435;28;19962;-87
2022/10/28 05:13:34;;;;;;;;;;;;;;;;;;5076243;28;19921;-86
2022/10/28 05:16:00;;;;;;;;;;;;;;;;;;5076281;28;19931;-87
2022/10/28 05:18:25;;;;;;;;;;;;;;;;;;5076139;28;19925;-84
2022/10/28 05:20:53;;;;;;;;;;;;;;;;;;5076169;28;20019;-86
2022/10/28 05:23:22;;;;;;;;;;;;;;;;;;5076037;28;19916;-83
2022/10/28 05:25:47;;;;;;;;;;;;;;;;;;5075886;28;19916;-84
2022/10/28 05:28:13;;;;;;;;;;;;;;;;;;5075896;28;20394;-84
2022/10/28 05:30:38;;;;;;;;;;;;;;;;;;5091372;28;19917;-82
2022/10/28 05:33:04;;;;;;;;;;;;;;;;;;5075893;28;20371;-85
2022/10/28 05:35:30;;;;;;;;;;;;;;;;;;5075821;28;19923;-84
2022/10/28 05:37:55;;;;;;;;;;;;;;;;;;5075705;28;20371;-83
2022/10/28 05:40:21;;;;;;;;;;;;;;;;;;5075834;28;19955;-84
2022/10/28 05:42:46;;;;;;;;;;;;;;;;;;5075695;28;20006;-87
2022/10/28 05:45:12;;;;;;;;;;;;;;;;;;5075926;28;19917;-85
2022/10/28 05:47:44;;;;;;;;;;;;;;;;;;5075493;28;20391;-87
2022/10/28 05:50:10;;;;;;;;;;;;;;;;;;5091107;28;19947;-87
2022/10/28 05:52:35;;;;;;;;;;;;;;;;;;5075359;28;19967;-87
2022/10/28 05:55:01;;;;;;;;;;;;;;;;;;5075438;28;19931;-87
2022/10/28 05:57:26;;;;;;;;;;;;;;;;;;5075347;28;19978;-86
2022/10/28 05:59:51;;;;;;;;;;;;;;;;;;5075281;28;20308;-87
2022/10/28 06:02:17;;;;;;;;;;;;;;;;;;5075182;28;19920;-86
2022/10/28 06:04:42;;;;;;;;;;;;;;;;;;5075156;28;19916;-86
2022/10/28 06:07:08;;;;;;;;;;;;;;;;;;5075009;28;19924;-86
2022/10/28 06:09:33;;;;;;;;;;;;;;;;;;5075111;28;19916;-89
2022/10/28 06:11:59;;;;;;;;;;;;;;;;;;5074970;28;20311;-86
2022/10/28 06:14:24;;;;;;;;;;;;;;;;;;5107665;28;19959;-86
2022/10/28 06:16:50;;;;;;;;;;;;;;;;;;5074778;28;19969;-83
2022/10/28 06:19:15;;;;;;;;;;;;;;;;;;5074926;28;20015;-84
2022/10/28 06:21:41;;;;;;;;;;;;;;;;;;5074911;28;19920;-87
2022/10/28 06:24:07;;;;;;;;;;;;;;;;;;5074813;28;19995;-84
2022/10/28 06:26:33;;;;;;;;;;;;;;;;;;5074671;28;19923;-85
2022/10/28 06:28:58;;;;;;;;;;;;;;;;;;5074801;28;19921;-87
2022/10/28 06:31:23;;;;;;;;;;;;;;;;;;5074307;28;19947;-85
2022/10/28 06:33:49;;;;;;;;;;;;;;;;;;5074605;28;19931;-84
2022/10/28 06:36:14;;;;;;;;;;;;;;;;;;5074536;28;19962;-88
2022/10/28 06:38:40;;;;;;;;;;;;;;;;;;5074610;28;19942;-87
2022/10/28 06:41:05;;;;;;;;;;;;;;;;;;5074518;28;19920;-88
2022/10/28 06:43:31;;;;;;;;;;;;;;;;;;5074567;28;19917;-88
2022/10/28 06:45:59;;;;;;;;;;;;;;;;;;5074294;28;20003;-86
2022/10/28 06:48:25;;;;;;;;;;;;;;;;;;5089964;28;19965;-86
2022/10/28 06:50:50;;;;;;;;;;;;;;;;;;5074476;28;20375;-86
2022/10/28 06:53:16;;;;;;;;;;;;;;;;;;5074295;28;19925;-87
2022/10/28 06:55:41;;;;;;;;;;;;;;;;;;5074487;28;20015;-86
2022/10/28 06:58:06;;;;;;;;;;;;;;;;;;5074276;28;20364;-86
2022/10/28 07:00:32;;;;;;;;;;;;;;;;;;5074266;28;19939;-87
2022/10/28 07:02:58;;;;;;;;;;;;;;;;;;5089861;28;19920;-88
2022/10/28 07:05:25;;;;;;;;;;;;;;;;;;5074098;28;19917;-87
2022/10/28 07:07:50;;;;;;;;;;;;;;;;;;5074083;28;20334;-83
2022/10/28 07:10:15;;;;;;;;;;;;;;;;;;5074473;28;19916;-87
2022/10/28 07:12:41;;;;;;;;;;;;;;;;;;5106773;28;20375;-84
2022/10/28 07:15:07;;;;;;;;;;;;;;;;;;5074092;28;20287;-86
2022/10/28 07:17:32;;;;;;;;;;;;;;;;;;5074039;28;20012;-84
2022/10/28 07:19:57;;;;;;;;;;;;;;;;;;5074032;28;20058;-85
2022/10/28 07:22:23;;;;;;;;;;;;;;;;;;5074003;28;19962;-87
2022/10/28 07:24:48;;;;;;;;;;;;;;;;;;5073985;28;20292;-86
2022/10/28 07:27:14;;;;;;;;;;;;;;;;;;5073830;28;20331;-87
2022/10/28 07:29:39;;;;;;;;;;;;;;;;;;5073410;28;20433;-86
2022/10/28 07:32:05;;;;;;;;;;;;;;;;;;5073646;28;19921;-85
2022/10/28 07:34:30;;;;;;;;;;;;;;;;;;5073953;28;19916;-86
2022/10/28 07:36:56;;;;;;;;;;;;;;;;;;5073732;28;19912;-86
2022/10/28 07:39:21;;;;;;;;;;;;;;;;;;5073848;28;19916;-86
2022/10/28 07:41:47;;;;;;;;;;;;;;;;;;5073917;28;20264;-87
2022/10/28 07:44:13;;;;;;;;;;;;;;;;;;5073842;28;19955;-85
2022/10/28 07:46:38;;;;;;;;;;;;;;;;;;5073642;28;19955;-88
2022/10/28 07:49:04;;;;;;;;;;;;;;;;;;5073815;28;19924;-85
2022/10/28 07:51:29;;;;;;;;;;;;;;;;;;5073706;28;19975;-85
2022/10/28 07:53:55;;;;;;;;;;;;;;;;;;5073664;28;19923;-86
2022/10/28 07:56:21;;;;;;;;;;;;;;;;;;5073639;28;19916;-86
2022/10/28 07:58:46;;;;;;;;;;;;;;;;;;5072319;28;19940;-83
2022/10/28 08:01:13;;;;;;;;;;;;;;;;;;5073627;28;19917;-84
2022/10/28 08:03:38;;;;;;;;;;;;;;;;;;5106063;28;19924;-85
2022/10/28 08:06:05;;;;;;;;;;;;;;;;;;5073541;28;20269;-85
2022/10/28 08:08:31;;;;;;;;;;;;;;;;;;5073460;28;20007;-85
2022/10/28 08:10:56;;;;;;;;;;;;;;;;;;5073489;28;20332;-86
2022/10/28 08:13:22;;;;;;;;;;;;;;;;;;5106060;28;19923;-86
2022/10/28 08:15:51;;;;;;;;;;;;;;;;;;5073413;28;19986;-85
2022/10/28 08:18:17;;;;;;;;;;;;;;;;;;5073423;28;19920;-86
2022/10/28 08:20:42;;;;;;;;;;;;;;;;;;5073442;28;20268;-85
2022/10/28 08:23:07;;;;;;;;;;;;;;;;;;5073363;28;19928;-86
2022/10/28 08:25:33;;;;;;;;;;;;;;;;;;5073420;28;19923;-87
2022/10/28 08:27:58;;;;;;;;;;;;;;;;;;5072079;28;20295;-85
2022/10/28 08:30:23;;;;;;;;;;;;;;;;;;5073360;28;20304;-84
2022/10/28 08:32:49;;;;;;;;;;;;;;;;;;5073094;28;19927;-86
2022/10/28 08:35:14;;;;;;;;;;;;;;;;;;5073238;28;19921;-87
2022/10/28 08:37:40;;;;;;;;;;;;;;;;;;5073305;28;19960;-86
2022/10/28 08:40:06;;;;;;;;;;;;;;;;;;5073470;28;19917;-86
2022/10/28 08:42:34;;;;;;;;;;;;;;;;;;5108942;28;20027;-83
2022/10/28 08:44:59;;;;;;;;;;;;;;;;;;5076691;28;19916;-85
2022/10/28 08:47:28;;;;;;;;;;;;;;;;;;5076679;28;20283;-85
2022/10/28 08:49:55;;;;;;;;;;;;;;;;;;5076664;28;19917;-86
2022/10/28 08:52:26;;;;;;;;;;;;;;;;;;5076555;28;19923;-87
2022/10/28 08:54:54;;;;;;;;;;;;;;;;;;5077026;28;19947;-86
2022/10/28 08:57:20;;;;;;;;;;;;;;;;;;5079191;28;20007;-84
2022/10/28 08:59:48;;;;;;;;;;;;;;;;;;5083121;28;19916;-85
2022/10/28 09:02:22;;;;;;;;;;;;;;;;;;5110168;28;19983;-83
2022/10/28 09:04:55;;;;;;;;;;;;;;;;;;5111153;28;19916;-84
2022/10/28 09:07:21;;;;;;;;;;;;;;;;;;5098017;28;19956;-85
2022/10/28 09:09:48;;;;;;;;;;;;;;;;;;5099598;28;19916;-85
2022/10/28 09:12:28;;;;;;;;;;;;;;;;;;5096551;28;19923;-86
2022/10/28 09:15:12;;;;;;;;;;;;;;;;;;5096555;28;19916;-84
2022/10/28 09:17:54;;;;;;;;;;;;;;;;;;5095121;28;20327;-84
2022/10/28 09:20:43;;;;;;;;;;;;;;;;;;5096314;28;20359;-84
2022/10/28 09:23:17;;;;;;;;;;;;;;;;;;5096507;27;19955;-86
2022/10/28 09:25:48;;;;;;;;;;;;;;;;;;5096214;28;19920;-84
2022/10/28 09:28:26;;;;;;;;;;;;;;;;;;5096126;28;19916;-84
2022/10/28 09:31:04;;;;;;;;;;;;;;;;;;5096143;28;20307;-86
2022/10/28 09:33:49;;;;;;;;;;;;;;;;;;5096225;28;20033;-85
2022/10/28 09:36:22;;;;;;;;;;;;;;;;;;5096230;28;19916;-86
2022/10/28 09:38:51;;;;;;;;;;;;;;;;;;5096230;28;20278;-86
2022/10/28 09:41:42;;;;;;;;;;;;;;;;;;5095919;28;19923;-85
2022/10/28 09:44:19;;;;;;;;;;;;;;;;;;5092839;28;20390;-84
2022/10/28 09:46:49;;;;;;;;;;;;;;;;;;5095765;28;20408;-85
2022/10/28 09:49:17;;;;;;;;;;;;;;;;;;5094734;28;20252;-87
2022/10/28 09:51:51;;;;;;;;;;;;;;;;;;5095228;28;19916;-84
2022/10/28 09:54:18;;;;;;;;;;;;;;;;;;5095652;28;20283;-85
2022/10/28 09:56:43;;;;;;;;;;;;;;;;;;5095587;28;19916;-86
2022/10/28 09:59:12;;;;;;;;;;;;;;;;;;5095757;28;19920;-84
2022/10/28 10:01:38;;;;;;;;;;;;;;;;;;5095511;28;19916;-85
2022/10/28 10:04:21;;;;;;;;;;;;;;;;;;5095582;28;19920;-87
2022/10/28 10:06:49;;;;;;;;;;;;;;;;;;5095370;28;19951;-86
2022/10/28 10:09:18;;;;;;;;;;;;;;;;;;5095403;28;19956;-85
2022/10/28 10:11:45;;;;;;;;;;;;;;;;;;5095304;28;20007;-85
2022/10/28 10:14:13;;;;;;;;;;;;;;;;;;5095275;28;20428;-87
2022/10/28 10:16:41;;;;;;;;;;;;;;;;;;5095238;28;19959;-86
2022/10/28 10:19:08;;;;;;;;;;;;;;;;;;5095296;28;19916;-85
2022/10/28 10:21:44;;;;;;;;;;;;;;;;;;5095291;28;19919;-85
2022/10/28 10:24:30;;;;;;;;;;;;;;;;;;5127973;27;19971;-86
2022/10/28 10:26:56;;;;;;;;;;;;;;;;;;5094919;28;20307;-88
2022/10/28 10:29:22;;;;;;;;;;;;;;;;;;5093753;28;19958;-86
2022/10/28 10:32:02;;;;;;;;;;;;;;;;;;5094826;28;19928;-87
2022/10/28 10:34:28;;;;;;;;;;;;;;;;;;5094929;28;20120;-87
2022/10/28 10:36:55;;;;;;;;;;;;;;;;;;5094924;28;19916;-87
2022/10/28 10:39:22;;;;;;;;;;;;;;;;;;5093567;28;20011;-88
2022/10/28 10:41:47;;;;;;;;;;;;;;;;;;5094864;28;19923;-86
2022/10/28 10:44:21;;;;;;;;;;;;;;;;;;5094724;28;20353;-87
2022/10/28 10:46:59;;;;;;;;;;;;;;;;;;5094616;28;19916;-86
2022/10/28 10:49:25;;;;;;;;;;;;;;;;;;5093451;28;19916;-87
2022/10/28 10:51:51;;;;;;;;;;;;;;;;;;5094690;28;20411;-85
2022/10/28 10:54:18;;;;;;;;;;;;;;;;;;5094648;28;20000;-86
2022/10/28 10:56:43;;;;;;;;;;;;;;;;;;5094524;28;19916;-84
2022/10/28 10:59:28;;;;;;;;;;;;;;;;;;5094482;28;19962;-84
2022/10/28 11:01:54;;;;;;;;;;;;;;;;;;5094558;28;20311;-84
2022/10/28 11:04:21;;;;;;;;;;;;;;;;;;5093648;28;20006;-84
2022/10/28 11:06:51;;;;;;;;;;;;;;;;;;5127253;27;19966;-84
2022/10/28 11:09:26;;;;;;;;;;;;;;;;;;5094590;28;20295;-86
2022/10/28 11:11:54;;;;;;;;;;;;;;;;;;5094251;28;20386;-85
2022/10/28 11:14:23;;;;;;;;;;;;;;;;;;5094210;28;19969;-86
2022/10/28 11:16:52;;;;;;;;;;;;;;;;;;5094232;28;20021;-86
2022/10/28 11:19:36;;;;;;;;;;;;;;;;;;5094178;28;19920;-86
2022/10/28 11:22:14;;;;;;;;;;;;;;;;;;5094160;28;19935;-88
2022/10/28 11:24:49;;;;;;;;;;;;;;;;;;5094184;28;19920;-83
2022/10/28 11:27:34;;;;;;;;;;;;;;;;;;5094006;28;19923;-84
2022/10/28 11:30:00;;;;;;;;;;;;;;;;;;5082940;28;19916;-86
2022/10/28 11:32:28;;;;;;;;;;;;;;;;;;5093953;28;19973;-86
2022/10/28 11:35:12;;;;;;;;;;;;;;;;;;5094117;28;19916;-87
2022/10/28 11:37:44;;;;;;;;;;;;;;;;;;5094135;28;19923;-86
2022/10/28 11:40:17;;;;;;;;;;;;;;;;;;5093990;28;19969;-85
2022/10/28 11:43:01;;;;;;;;;;;;;;;;;;5093977;28;19920;-87
2022/10/28 11:45:38;;;;;;;;;;;;;;;;;;5093899;28;19923;-86
2022/10/28 11:48:10;;;;;;;;;;;;;;;;;;5093966;28;20401;-86
2022/10/28 11:50:41;;;;;;;;;;;;;;;;;;5092631;28;19912;-87
2022/10/28 11:53:25;;;;;;;;;;;;;;;;;;5094037;28;19962;-85
2022/10/28 11:55:54;;;;;;;;;;;;;;;;;;5092760;28;20313;-86
2022/10/28 11:58:22;;;;;;;;;;;;;;;;;;5093846;28;19920;-87
2022/10/28 12:01:06;;;;;;;;;;;;;;;;;;5094076;28;19977;-87
2022/10/28 12:03:54;;;;;;;;;;;;;;;;;;5093809;28;19916;-86
2022/10/28 12:06:31;;;;;;;;;;;;;;;;;;5093850;28;19916;-87
2022/10/28 12:08:59;;;;;;;;;;;;;;;;;;5093755;28;20387;-86
2022/10/28 12:11:30;;;;;;;;;;;;;;;;;;5093772;28;19920;-87
2022/10/28 12:13:59;;;;;;;;;;;;;;;;;;5093764;28;20386;-86
2022/10/28 12:16:38;;;;;;;;;;;;;;;;;;5097101;28;19923;-87
2022/10/28 12:19:27;;;;;;;;;;;;;;;;;;5097588;28;19962;-85
2022/10/28 12:21:55;;;;;;;;;;;;;;;;;;5094364;28;19916;-86
2022/10/28 12:24:22;;;;;;;;;;;;;;;;;;5096237;28;19923;-86
2022/10/28 12:26:53;;;;;;;;;;;;;;;;;;5097355;28;19916;-85
2022/10/28 12:29:39;;;;;;;;;;;;;;;;;;5097345;28;19924;-86
2022/10/28 12:32:19;;;;;;;;;;;;;;;;;;5095577;28;20014;-87
2022/10/28 12:34:46;;;;;;;;;;;;;;;;;;5097321;28;19960;-86
2022/10/28 12:37:15;;;;;;;;;;;;;;;;;;5097477;28;20283;-84
2022/10/28 12:39:46;;;;;;;;;;;;;;;;;;5097242;28;19916;-86
2022/10/28 12:42:17;;;;;;;;;;;;;;;;;;5097220;28;19935;-88
2022/10/28 12:44:43;;;;;;;;;;;;;;;;;;5097061;28;19968;-85
2022/10/28 12:47:26;;;;;;;;;;;;;;;;;;5095639;28;20002;-85
2022/10/28 12:49:57;;;;;;;;;;;;;;;;;;5096996;28;19916;-86
2022/10/28 12:52:27;;;;;;;;;;;;;;;;;;5097028;28;20014;-86
2022/10/28 12:55:11;;;;;;;;;;;;;;;;;;5097128;28;19916;-85
2022/10/28 12:57:37;;;;;;;;;;;;;;;;;;5107911;28;19934;-86
2022/10/28 13:00:14;;;;;;;;;;;;;;;;;;5117766;28;19927;-86
2022/10/28 13:02:44;;;;;;;;;;;;;;;;;;5121955;28;19911;-84
2022/10/28 13:05:35;;;;;;;;;;;;;;;;;;5097216;28;19920;-85
2022/10/28 13:08:24;;;;;;;;;;;;;;;;;;5065618;28;19940;-86
2022/10/28 13:10:57;;;;;;;;;;;;;;;;;;5073585;28;19923;-85
2022/10/28 13:13:38;;;;;;;;;;;;;;;;;;5076315;28;20356;-86
2022/10/28 13:16:23;;;;;;;;;;;;;;;;;;5076446;28;19917;-86
2022/10/28 13:18:51;;;;;;;;;;;;;;;;;;5076232;28;19960;-85
2022/10/28 13:21:25;;;;;;;;;;;;;;;;;;5079445;28;19935;-85
2022/10/28 13:24:03;;;;;;;;;;;;;;;;;;5097960;28;19916;-85
2022/10/28 13:26:33;;;;;;;;;;;;;;;;;;5081263;28;19921;-88
2022/10/28 13:29:00;;;;;;;;;;;;;;;;;;5089054;28;19943;-87
2022/10/28 13:31:36;;;;;;;;;;;;;;;;;;5089166;28;20014;-86
2022/10/28 13:34:01;;;;;;;;;;;;;;;;;;5094974;28;19927;-84
2022/10/28 13:36:28;;;;;;;;;;;;;;;;;;5081460;28;19969;-86
2022/10/28 13:39:01;;;;;;;;;;;;;;;;;;5083725;28;20418;-87
2022/10/28 13:41:31;;;;;;;;;;;;;;;;;;5082996;28;19928;-86
2022/10/28 13:43:58;;;;;;;;;;;;;;;;;;5090202;28;19928;-86
2022/10/28 13:46:42;;;;;;;;;;;;;;;;;;5088518;28;19973;-87
2022/10/28 13:49:23;;;;;;;;;;;;;;;;;;5087561;28;19928;-88
2022/10/28 13:51:49;;;;;;;;;;;;;;;;;;5082998;28;19920;-86
2022/10/28 13:54:26;;;;;;;;;;;;;;;;;;5091634;28;19924;-88
2022/10/28 13:56:51;;;;;;;;;;;;;;;;;;5087320;28;20327;-90
2022/10/28 13:59:28;;;;;;;;;;;;;;;;;;5094440;28;19925;-87
2022/10/28 14:01:54;;;;;;;;;;;;;;;;;;5080743;28;19921;-87
2022/10/28 14:04:20;;;;;;;;;;;;;;;;;;5091157;28;19921;-89
2022/10/28 14:06:59;;;;;;;;;;;;;;;;;;5088604;28;19927;-86
2022/10/28 14:09:29;;;;;;;;;;;;;;;;;;5092518;28;19920;-87
2022/10/28 14:12:16;;;;;;;;;;;;;;;;;;5093221;28;19916;-90
2022/10/28 14:14:59;;;;;;;;;;;;;;;;;;5098503;28;19920;-87
2022/10/28 14:17:28;;;;;;;;;;;;;;;;;;5091505;28;19952;-87
2022/10/28 14:19:53;;;;;;;;;;;;;;;;;;5097801;28;20406;-87
2022/10/28 14:22:26;;;;;;;;;;;;;;;;;;5094787;28;19921;-90
2022/10/28 14:24:52;;;;;;;;;;;;;;;;;;5095352;28;20015;-88
2022/10/28 14:27:18;;;;;;;;;;;;;;;;;;5095129;28;19916;-88
2022/10/28 14:29:47;;;;;;;;;;;;;;;;;;5095247;28;20299;-87
2022/10/28 14:32:30;;;;;;;;;;;;;;;;;;5094849;28;19920;-87
2022/10/28 14:35:16;;;;;;;;;;;;;;;;;;5095228;28;20367;-86
2022/10/28 14:37:59;;;;;;;;;;;;;;;;;;5097911;27;20029;-86
2022/10/28 14:40:42;;;;;;;;;;;;;;;;;;5094873;28;19923;-87
2022/10/28 14:43:10;;;;;;;;;;;;;;;;;;5094814;28;19913;-88
2022/10/28 14:45:35;;;;;;;;;;;;;;;;;;5093394;28;19916;-87
2022/10/28 14:48:10;;;;;;;;;;;;;;;;;;5094919;28;19923;-88
2022/10/28 14:50:46;;;;;;;;;;;;;;;;;;5093407;28;20390;-87
2022/10/28 14:53:16;;;;;;;;;;;;;;;;;;5094794;28;19961;-84
2022/10/28 14:55:44;;;;;;;;;;;;;;;;;;5089507;28;19920;-88
2022/10/28 14:58:12;;;;;;;;;;;;;;;;;;5085635;28;19916;-88
2022/10/28 15:00:40;;;;;;;;;;;;;;;;;;5089191;28;20291;-88
2022/10/28 15:03:08;;;;;;;;;;;;;;;;;;5078921;28;19982;-87
2022/10/28 15:05:34;;;;;;;;;;;;;;;;;;5078399;28;19916;-88
2022/10/28 15:08:02;;;;;;;;;;;;;;;;;;5077555;28;20198;-88
2022/10/28 15:10:29;;;;;;;;;;;;;;;;;;5075695;28;19920;-89
2022/10/28 15:12:56;;;;;;;;;;;;;;;;;;5094632;28;20019;-87
2022/10/28 15:15:23;;;;;;;;;;;;;;;;;;5098316;28;19916;-85
2022/10/28 15:17:49;;;;;;;;;;;;;;;;;;5093101;28;19940;-86
2022/10/28 15:20:23;;;;;;;;;;;;;;;;;;5074124;28;19946;-87
2022/10/28 15:22:48;;;;;;;;;;;;;;;;;;5076908;28;19920;-85
2022/10/28 15:25:15;;;;;;;;;;;;;;;;;;5075630;28;20003;-88
2022/10/28 15:27:41;;;;;;;;;;;;;;;;;;5097161;28;19985;-87
2022/10/28 15:30:14;;;;;;;;;;;;;;;;;;5096343;28;20025;-86
2022/10/28 15:32:40;;;;;;;;;;;;;;;;;;5094113;28;19926;-87
2022/10/28 15:35:25;;;;;;;;;;;;;;;;;;5094063;28;20015;-85
2022/10/28 15:37:51;;;;;;;;;;;;;;;;;;5094028;28;19916;-86
2022/10/28 15:40:27;;;;;;;;;;;;;;;;;;5092892;28;19916;-88
2022/10/28 15:42:57;;;;;;;;;;;;;;;;;;5088198;28;19923;-86
2022/10/28 15:45:24;;;;;;;;;;;;;;;;;;5073952;28;19916;-85
2022/10/28 15:47:49;;;;;;;;;;;;;;;;;;5072769;28;19923;-84
2022/10/28 15:50:15;;;;;;;;;;;;;;;;;;5074010;28;20011;-87
2022/10/28 15:52:46;;;;;;;;;;;;;;;;;;5077815;28;19917;-87
2022/10/28 15:55:23;;;;;;;;;;;;;;;;;;5079747;28;20402;-84
2022/10/28 15:57:59;;;;;;;;;;;;;;;;;;5082798;28;19927;-85
2022/10/28 16:00:25;;;;;;;;;;;;;;;;;;5082471;28;19947;-89
2022/10/28 16:03:01;;;;;;;;;;;;;;;;;;5077003;28;20333;-84
2022/10/28 16:05:38;;;;;;;;;;;;;;;;;;5078678;28;19917;-85
2022/10/28 16:08:15;;;;;;;;;;;;;;;;;;5083449;28;20000;-86
2022/10/28 16:10:42;;;;;;;;;;;;;;;;;;5087047;28;19920;-88
2022/10/28 16:13:47;;;;;;;;;;;;;;;;;;;;;
2022/10/28 16:16:14;;;;;;;;;;;;;;;;;;5100743;28;20012;-86
2022/10/28 16:18:48;;;;;;;;;;;;;;;;;;5104886;28;19923;-86
2022/10/28 16:21:19;;;;;;;;;;;;;;;;;;5102757;28;19939;-88
2022/10/28 16:23:48;;;;;;;;;;;;;;;;;;5101520;28;19964;-86
2022/10/28 16:26:21;;;;;;;;;;;;;;;;;;5103880;28;19916;-87
2022/10/28 16:28:47;;;;;;;;;;;;;;;;;;5102442;28;19923;-87
2022/10/28 16:31:16;;;;;;;;;;;;;;;;;;5087261;28;19920;-86
2022/10/28 16:33:42;;;;;;;;;;;;;;;;;;5077052;28;19928;-88
2022/10/28 16:36:08;;;;;;;;;;;;;;;;;;5076961;28;20054;-88
2022/10/28 16:38:33;;;;;;;;;;;;;;;;;;5081989;28;19917;-90
2022/10/28 16:41:00;;;;;;;;;;;;;;;;;;5081596;28;19912;-88
2022/10/28 16:43:29;;;;;;;;;;;;;;;;;;5082817;28;19920;-86
2022/10/28 16:45:56;;;;;;;;;;;;;;;;;;5084720;28;19959;-87
2022/10/28 16:48:23;;;;;;;;;;;;;;;;;;5081661;28;19962;-89
2022/10/28 16:50:52;;;;;;;;;;;;;;;;;;5077618;28;19953;-89
2022/10/28 16:53:18;;;;;;;;;;;;;;;;;;5083964;28;19988;-85
2022/10/28 16:55:43;;;;;;;;;;;;;;;;;;5084263;28;19963;-87
2022/10/28 16:58:09;;;;;;;;;;;;;;;;;;5084078;28;20367;-86
2022/10/28 17:00:35;;;;;;;;;;;;;;;;;;5090184;28;19917;-88
2022/10/28 17:03:00;;;;;;;;;;;;;;;;;;5081555;28;19917;-88